createdAt,value
2017-01-15T00:00:16.915Z,0
2017-01-15T00:01:44.470Z,0
2017-01-15T00:02:10.162Z,0
2017-01-15T00:03:29.323Z,0
2017-01-15T00:04:48.376Z,0
2017-01-15T00:05:19.441Z,0
2017-01-15T00:07:03.204Z,0
2017-01-15T00:07:19.481Z,0
2017-01-15T00:08:49.881Z,0
2017-01-15T00:10:09.882Z,0
2017-01-15T00:10:21.340Z,0
2017-01-15T00:11:58.643Z,0
2017-01-15T00:12:30.373Z,0
2017-01-15T00:13:42.828Z,0
2017-01-15T00:15:10.544Z,0
2017-01-15T00:15:27.499Z,0
2017-01-15T00:16:52.713Z,0
2017-01-15T00:17:27.377Z,0
2017-01-15T00:18:49.329Z,0
2017-01-15T00:20:09.417Z,0
2017-01-15T00:20:37.318Z,0
2017-01-15T00:22:13.466Z,0
2017-01-15T00:23:13.058Z,0
2017-01-15T00:24:33.765Z,0
2017-01-15T00:24:47.931Z,0
2017-01-15T00:26:04.710Z,0
2017-01-15T00:27:25.228Z,0
2017-01-15T00:28:37.284Z,0
2017-01-15T00:29:10.485Z,0
2017-01-15T00:30:53.033Z,0
2017-01-15T00:31:10.600Z,0
2017-01-15T00:32:40.048Z,0
2017-01-15T00:33:58.908Z,0
2017-01-15T00:34:25.017Z,0
2017-01-15T00:36:12.930Z,0
2017-01-15T00:36:38.675Z,0
2017-01-15T00:38:22.711Z,0
2017-01-15T00:39:39.761Z,0
2017-01-15T00:40:50.200Z,0
2017-01-15T00:42:02.683Z,0
2017-01-15T00:42:24.196Z,0
2017-01-15T00:44:03.665Z,0
2017-01-15T00:44:58.604Z,0
2017-01-15T00:45:44.657Z,0
2017-01-15T00:47:22.234Z,0
2017-01-15T00:47:33.030Z,0
2017-01-15T00:49:18.803Z,0
2017-01-15T00:50:39.420Z,0
2017-01-15T00:50:55.482Z,0
2017-01-15T00:52:37.942Z,0
2017-01-15T00:53:42.605Z,0
2017-01-15T00:55:00.985Z,0
2017-01-15T00:55:12.724Z,0
2017-01-15T00:56:28.329Z,0
2017-01-15T00:57:51.845Z,0
2017-01-15T00:59:02.782Z,0
2017-01-15T00:59:15.661Z,0
2017-01-15T01:00:37.289Z,0
2017-01-15T01:01:54.641Z,0
2017-01-15T01:02:50.776Z,0
2017-01-15T01:03:27.984Z,0
2017-01-15T01:04:50.502Z,0
2017-01-15T01:06:14.463Z,0
2017-01-15T01:06:25.090Z,0
2017-01-15T01:07:39.961Z,0
2017-01-15T01:09:12.141Z,0
2017-01-15T01:09:27.649Z,0
2017-01-15T01:10:44.854Z,0
2017-01-15T01:12:06.179Z,0
2017-01-15T01:13:17.070Z,0
2017-01-15T01:13:27.491Z,0
2017-01-15T01:14:41.374Z,0
2017-01-15T01:16:15.288Z,0
2017-01-15T01:16:27.494Z,0
2017-01-15T01:17:45.387Z,0
2017-01-15T01:19:04.776Z,0
2017-01-15T01:19:27.820Z,0
2017-01-15T01:20:58.378Z,0
2017-01-15T01:22:14.485Z,0
2017-01-15T01:22:37.544Z,0
2017-01-15T01:23:39.986Z,0
2017-01-15T01:24:51.336Z,0
2017-01-15T01:26:10.683Z,0
2017-01-15T01:26:27.485Z,0
2017-01-15T01:27:27.541Z,0
2017-01-15T01:28:45.181Z,0
2017-01-15T01:30:01.281Z,0
2017-01-15T01:31:18.067Z,0
2017-01-15T01:31:30.668Z,0
2017-01-15T01:32:51.264Z,0
2017-01-15T01:34:10.704Z,0
2017-01-15T01:35:16.279Z,0
2017-01-15T01:35:39.269Z,0
2017-01-15T01:37:01.950Z,0
2017-01-15T01:38:21.345Z,0
2017-01-15T01:38:39.275Z,0
2017-01-15T01:39:52.577Z,0
2017-01-15T01:41:29.197Z,0
2017-01-15T01:41:44.457Z,0
2017-01-15T01:42:57.403Z,0
2017-01-15T01:44:21.592Z,0
2017-01-15T01:45:32.600Z,0
2017-01-15T01:45:49.176Z,0
2017-01-15T01:47:29.816Z,0
2017-01-15T01:47:49.426Z,0
2017-01-15T01:49:13.608Z,0
2017-01-15T01:49:49.242Z,0
2017-01-15T01:51:22.059Z,0
2017-01-15T01:52:37.127Z,0
2017-01-15T01:53:01.112Z,0
2017-01-15T01:54:23.865Z,0
2017-01-15T01:55:50.083Z,0
2017-01-15T01:56:01.192Z,0
2017-01-15T01:57:27.463Z,0
2017-01-15T01:58:48.669Z,0
2017-01-15T01:59:14.676Z,0
2017-01-15T02:00:48.671Z,0
2017-01-15T02:02:03.340Z,0
2017-01-15T02:02:28.437Z,0
2017-01-15T02:03:52.106Z,0
2017-01-15T02:05:12.473Z,0
2017-01-15T02:05:28.366Z,0
2017-01-15T02:06:50.758Z,0
2017-01-15T02:08:15.103Z,0
2017-01-15T02:08:31.136Z,0
2017-01-15T02:09:56.906Z,0
2017-01-15T02:11:20.283Z,0
2017-01-15T02:11:38.246Z,0
2017-01-15T02:13:08.488Z,0
2017-01-15T02:14:26.854Z,0
2017-01-15T02:14:58.815Z,0
2017-01-15T02:16:48.695Z,0
2017-01-15T02:17:06.278Z,0
2017-01-15T02:18:43.693Z,0
2017-01-15T02:19:52.062Z,0
2017-01-15T02:20:27.480Z,0
2017-01-15T02:22:02.886Z,0
2017-01-15T02:22:36.764Z,0
2017-01-15T02:23:47.744Z,0
2017-01-15T02:25:14.205Z,0
2017-01-15T02:25:37.382Z,0
2017-01-15T02:27:17.619Z,0
2017-01-15T02:28:02.532Z,0
2017-01-15T02:28:47.975Z,0
2017-01-15T02:30:13.992Z,0
2017-01-15T02:30:59.678Z,0
2017-01-15T02:31:55.410Z,0
2017-01-15T02:33:27.257Z,0
2017-01-15T02:33:45.929Z,0
2017-01-15T02:35:06.621Z,0
2017-01-15T02:36:34.858Z,0
2017-01-15T02:36:45.969Z,0
2017-01-15T02:38:09.380Z,0
2017-01-15T02:39:31.098Z,0
2017-01-15T02:39:56.545Z,0
2017-01-15T02:41:21.347Z,0
2017-01-15T02:42:44.765Z,0
2017-01-15T02:42:56.564Z,0
2017-01-15T02:44:38.226Z,0
2017-01-15T02:45:07.033Z,0
2017-01-15T02:46:17.537Z,0
2017-01-15T02:47:43.815Z,0
2017-01-15T02:47:56.587Z,0
2017-01-15T02:49:23.185Z,0
2017-01-15T02:50:45.926Z,0
2017-01-15T02:51:10.575Z,0
2017-01-15T02:52:32.020Z,0
2017-01-15T02:53:54.855Z,0
2017-01-15T02:54:10.576Z,0
2017-01-15T02:55:35.705Z,0
2017-01-15T02:57:00.275Z,0
2017-01-15T02:57:16.519Z,0
2017-01-15T02:58:46.211Z,0
2017-01-15T03:00:05.859Z,0
2017-01-15T03:00:27.552Z,0
2017-01-15T03:01:49.365Z,0
2017-01-15T03:02:27.580Z,0
2017-01-15T03:03:52.095Z,0
2017-01-15T03:05:15.303Z,0
2017-01-15T03:05:36.713Z,0
2017-01-15T03:06:49.482Z,0
2017-01-15T03:08:16.204Z,0
2017-01-15T03:08:27.589Z,0
2017-01-15T03:09:53.018Z,0
2017-01-15T03:11:19.677Z,0
2017-01-15T03:11:33.951Z,0
2017-01-15T03:13:04.356Z,0
2017-01-15T03:14:22.476Z,0
2017-01-15T03:14:37.945Z,0
2017-01-15T03:16:02.421Z,0
2017-01-15T03:17:26.312Z,0
2017-01-15T03:17:38.361Z,0
2017-01-15T03:18:57.896Z,0
2017-01-15T03:20:25.073Z,0
2017-01-15T03:20:59.841Z,0
2017-01-15T03:21:58.527Z,0
2017-01-15T03:23:20.176Z,0
2017-01-15T03:24:22.971Z,0
2017-01-15T03:24:57.753Z,0
2017-01-15T03:26:37.550Z,0
2017-01-15T03:27:33.666Z,0
2017-01-15T03:28:17.130Z,0
2017-01-15T03:29:36.511Z,0
2017-01-15T03:30:57.446Z,0
2017-01-15T03:31:13.459Z,0
2017-01-15T03:32:38.213Z,0
2017-01-15T03:34:03.294Z,0
2017-01-15T03:34:14.174Z,0
2017-01-15T03:35:58.699Z,0
2017-01-15T03:36:14.204Z,0
2017-01-15T03:37:38.774Z,0
2017-01-15T03:39:02.224Z,0
2017-01-15T03:39:14.882Z,0
2017-01-15T03:40:38.471Z,0
2017-01-15T03:41:14.898Z,0
2017-01-15T03:43:02.975Z,0
2017-01-15T03:43:14.892Z,0
2017-01-15T03:44:39.375Z,0
2017-01-15T03:46:03.870Z,0
2017-01-15T03:46:25.725Z,0
2017-01-15T03:47:49.327Z,0
2017-01-15T03:49:15.676Z,0
2017-01-15T03:49:27.676Z,0
2017-01-15T03:50:48.344Z,0
2017-01-15T03:52:11.295Z,0
2017-01-15T03:52:27.710Z,0
2017-01-15T03:53:52.471Z,0
2017-01-15T03:55:14.032Z,0
2017-01-15T03:55:27.727Z,0
2017-01-15T03:57:03.188Z,0
2017-01-15T03:58:17.654Z,0
2017-01-15T03:58:30.685Z,0
2017-01-15T03:59:56.079Z,0
2017-01-15T04:01:20.057Z,0
2017-01-15T04:01:37.802Z,0
2017-01-15T04:02:53.102Z,0
2017-01-15T04:04:22.881Z,0
2017-01-15T04:05:00.385Z,0
2017-01-15T04:05:57.528Z,0
2017-01-15T04:07:20.702Z,0
2017-01-15T04:07:37.780Z,0
2017-01-15T04:09:14.439Z,0
2017-01-15T04:10:15.051Z,0
2017-01-15T04:10:55.995Z,0
2017-01-15T04:12:25.666Z,0
2017-01-15T04:12:49.120Z,0
2017-01-15T04:14:37.359Z,0
2017-01-15T04:15:07.641Z,0
2017-01-15T04:16:38.226Z,0
2017-01-15T04:17:56.272Z,0
2017-01-15T04:18:19.420Z,0
2017-01-15T04:20:08.776Z,0
2017-01-15T04:20:23.710Z,0
2017-01-15T04:21:58.334Z,0
2017-01-15T04:22:47.197Z,0
2017-01-15T04:24:21.649Z,0
2017-01-15T04:24:33.113Z,0
2017-01-15T04:25:43.707Z,0
2017-01-15T04:26:53.652Z,0
2017-01-15T04:28:25.800Z,0
2017-01-15T04:28:45.393Z,0
2017-01-15T04:30:23.282Z,0
2017-01-15T04:30:45.372Z,0
2017-01-15T04:32:29.064Z,0
2017-01-15T04:32:45.403Z,0
2017-01-15T04:34:13.418Z,0
2017-01-15T04:35:34.312Z,0
2017-01-15T04:35:52.306Z,0
2017-01-15T04:37:10.649Z,0
2017-01-15T04:38:39.622Z,0
2017-01-15T04:39:16.417Z,0
2017-01-15T04:40:02.613Z,0
2017-01-15T04:41:21.466Z,0
2017-01-15T04:42:42.228Z,0
2017-01-15T04:42:52.350Z,0
2017-01-15T04:44:28.077Z,0
2017-01-15T04:45:27.142Z,0
2017-01-15T04:46:03.200Z,0
2017-01-15T04:47:02.135Z,0
2017-01-15T04:48:50.519Z,0
2017-01-15T04:49:14.828Z,0
2017-01-15T04:50:37.689Z,0
2017-01-15T04:52:02.955Z,0
2017-01-15T04:52:14.817Z,0
2017-01-15T04:53:34.571Z,0
2017-01-15T04:54:36.719Z,0
2017-01-15T04:55:29.747Z,0
2017-01-15T04:56:54.963Z,0
2017-01-15T04:58:03.978Z,0
2017-01-15T04:58:22.214Z,0
2017-01-15T04:59:58.089Z,0
2017-01-15T05:00:33.211Z,0
2017-01-15T05:01:34.618Z,0
2017-01-15T05:02:55.972Z,0
2017-01-15T05:03:22.225Z,0
2017-01-15T05:04:50.588Z,0
2017-01-15T05:06:09.807Z,0
2017-01-15T05:06:35.312Z,0
2017-01-15T05:08:08.079Z,0
2017-01-15T05:08:35.355Z,0
2017-01-15T05:10:10.061Z,0
2017-01-15T05:10:45.461Z,0
2017-01-15T05:12:33.892Z,0
2017-01-15T05:12:46.813Z,0
2017-01-15T05:14:29.759Z,0
2017-01-15T05:15:33.811Z,0
2017-01-15T05:15:54.676Z,0
2017-01-15T05:17:36.768Z,0
2017-01-15T05:17:54.697Z,0
2017-01-15T05:19:09.153Z,0
2017-01-15T05:19:54.695Z,0
2017-01-15T05:21:39.270Z,0
2017-01-15T05:21:54.698Z,0
2017-01-15T05:23:43.777Z,0
2017-01-15T05:23:56.459Z,0
2017-01-15T05:25:45.451Z,0
2017-01-15T05:25:58.348Z,0
2017-01-15T05:27:23.243Z,0
2017-01-15T05:27:58.389Z,0
2017-01-15T05:29:35.608Z,0
2017-01-15T05:30:15.411Z,0
2017-01-15T05:31:41.456Z,0
2017-01-15T05:33:00.235Z,0
2017-01-15T05:33:18.396Z,0
2017-01-15T05:34:44.968Z,0
2017-01-15T05:36:07.937Z,0
2017-01-15T05:36:31.935Z,0
2017-01-15T05:38:22.307Z,0
2017-01-15T05:38:52.633Z,0
2017-01-15T05:40:15.754Z,0
2017-01-15T05:41:45.414Z,0
2017-01-15T05:42:04.050Z,0
2017-01-15T05:43:38.504Z,0
2017-01-15T05:44:04.042Z,0
2017-01-15T05:45:53.365Z,0
2017-01-15T05:46:26.075Z,0
2017-01-15T05:48:17.093Z,0
2017-01-15T05:48:27.179Z,0
2017-01-15T05:49:44.090Z,0
2017-01-15T05:51:16.090Z,0
2017-01-15T05:51:37.770Z,0
2017-01-15T05:53:02.680Z,0
2017-01-15T05:53:37.749Z,0
2017-01-15T05:54:37.777Z,0
2017-01-15T05:56:26.837Z,0
2017-01-15T05:56:37.790Z,0
2017-01-15T05:58:19.582Z,0
2017-01-15T05:58:37.805Z,0
2017-01-15T06:00:09.444Z,0
2017-01-15T06:00:37.758Z,0
2017-01-15T06:01:55.352Z,0
2017-01-15T06:03:27.616Z,0
2017-01-15T06:03:53.698Z,0
2017-01-15T06:05:36.669Z,0
2017-01-15T06:05:53.698Z,0
2017-01-15T06:07:38.246Z,0
2017-01-15T06:07:53.679Z,0
2017-01-15T06:09:44.868Z,0
2017-01-15T06:10:07.491Z,0
2017-01-15T06:11:55.339Z,0
2017-01-15T06:12:19.802Z,0
2017-01-15T06:13:45.340Z,0
2017-01-15T06:14:18.774Z,0
2017-01-15T06:16:02.642Z,0
2017-01-15T06:16:18.772Z,0
2017-01-15T06:18:01.244Z,0
2017-01-15T06:18:53.590Z,0
2017-01-15T06:19:40.195Z,0
2017-01-15T06:21:04.844Z,0
2017-01-15T06:21:42.699Z,0
2017-01-15T06:23:04.392Z,0
2017-01-15T06:24:27.814Z,0
2017-01-15T06:24:39.739Z,0
2017-01-15T06:26:16.415Z,0
2017-01-15T06:26:39.641Z,0
2017-01-15T06:28:16.699Z,0
2017-01-15T06:29:28.805Z,0
2017-01-15T06:29:51.898Z,0
2017-01-15T06:31:18.968Z,0
2017-01-15T06:31:51.906Z,0
2017-01-15T06:32:51.900Z,0
2017-01-15T06:34:41.243Z,0
2017-01-15T06:35:13.635Z,0
2017-01-15T06:36:54.492Z,0
2017-01-15T06:37:13.627Z,0
2017-01-15T06:38:46.022Z,0
2017-01-15T06:39:13.632Z,0
2017-01-15T06:40:35.574Z,0
2017-01-15T06:41:59.979Z,0
2017-01-15T06:42:13.626Z,0
2017-01-15T06:43:38.864Z,0
2017-01-15T06:44:46.841Z,0
2017-01-15T06:45:33.617Z,0
2017-01-15T06:47:10.413Z,0
2017-01-15T06:47:21.236Z,0
2017-01-15T06:49:10.381Z,4
2017-01-15T06:49:28.029Z,4
2017-01-15T06:50:56.244Z,4
2017-01-15T06:52:16.247Z,4
2017-01-15T06:52:37.805Z,4
2017-01-15T06:54:10.391Z,4
2017-01-15T06:55:26.010Z,4
2017-01-15T06:55:52.900Z,4
2017-01-15T06:57:18.217Z,4
2017-01-15T06:58:40.959Z,4
2017-01-15T06:59:04.874Z,8
2017-01-15T07:00:26.752Z,8
2017-01-15T07:01:51.723Z,8
2017-01-15T07:02:04.849Z,8
2017-01-15T07:03:31.049Z,12
2017-01-15T07:04:53.979Z,12
2017-01-15T07:05:06.292Z,16
2017-01-15T07:06:42.143Z,16
2017-01-15T07:07:25.486Z,20
2017-01-15T07:08:52.788Z,24
2017-01-15T07:09:16.503Z,24
2017-01-15T07:10:54.911Z,32
2017-01-15T07:11:16.540Z,32
2017-01-15T07:12:45.539Z,40
2017-01-15T07:14:05.007Z,44
2017-01-15T07:14:25.486Z,48
2017-01-15T07:15:25.479Z,52
2017-01-15T07:16:25.453Z,60
2017-01-15T07:18:08.829Z,72
2017-01-15T07:18:25.482Z,76
2017-01-15T07:19:50.814Z,88
2017-01-15T07:21:14.261Z,104
2017-01-15T07:21:25.475Z,104
2017-01-15T07:23:13.966Z,120
2017-01-15T07:23:49.604Z,128
2017-01-15T07:25:31.228Z,148
2017-01-15T07:25:49.319Z,148
2017-01-15T07:27:04.164Z,168
2017-01-15T07:28:17.946Z,188
2017-01-15T07:29:30.701Z,208
2017-01-15T07:29:49.341Z,208
2017-01-15T07:31:16.068Z,236
2017-01-15T07:32:38.537Z,256
2017-01-15T07:32:54.605Z,264
2017-01-15T07:34:31.018Z,292
2017-01-15T07:35:42.912Z,312
2017-01-15T07:36:15.480Z,328
2017-01-15T07:37:54.293Z,364
2017-01-15T07:38:15.502Z,376
2017-01-15T07:40:03.847Z,412
2017-01-15T07:40:43.230Z,440
2017-01-15T07:42:23.592Z,496
2017-01-15T07:42:51.652Z,524
2017-01-15T07:44:37.762Z,588
2017-01-15T07:44:51.644Z,600
2017-01-15T07:46:29.134Z,640
2017-01-15T07:46:51.603Z,644
2017-01-15T07:48:02.815Z,672
2017-01-15T07:49:10.194Z,688
2017-01-15T07:49:51.629Z,704
2017-01-15T07:51:36.329Z,744
2017-01-15T07:52:14.413Z,756
2017-01-15T07:52:58.004Z,784
2017-01-15T07:54:35.885Z,832
2017-01-15T07:54:51.584Z,852
2017-01-15T07:56:16.339Z,912
2017-01-15T07:56:51.591Z,932
2017-01-15T07:58:08.105Z,956
2017-01-15T07:59:32.496Z,964
2017-01-15T07:59:51.578Z,972
2017-01-15T08:01:22.383Z,1004
2017-01-15T08:02:39.853Z,1028
2017-01-15T08:03:34.967Z,1052
2017-01-15T08:04:19.390Z,1084
2017-01-15T08:05:57.932Z,1160
2017-01-15T08:06:53.453Z,1216
2017-01-15T08:07:36.630Z,1268
2017-01-15T08:09:04.956Z,1368
2017-01-15T08:09:27.529Z,1400
2017-01-15T08:11:06.170Z,1560
2017-01-15T08:11:50.145Z,1616
2017-01-15T08:12:51.020Z,1728
2017-01-15T08:14:15.539Z,1812
2017-01-15T08:15:13.867Z,1912
2017-01-15T08:16:10.070Z,2016
2017-01-15T08:17:07.228Z,2120
2017-01-15T08:18:19.371Z,2200
2017-01-15T08:19:11.396Z,2248
2017-01-15T08:20:25.878Z,2332
2017-01-15T08:20:58.792Z,2400
2017-01-15T08:22:41.245Z,2540
2017-01-15T08:22:58.766Z,2556
2017-01-15T08:24:22.792Z,2456
2017-01-15T08:25:48.631Z,2360
2017-01-15T08:26:34.335Z,2280
2017-01-15T08:28:11.099Z,2144
2017-01-15T08:28:31.304Z,2152
2017-01-15T08:30:19.313Z,2144
2017-01-15T08:30:51.005Z,2140
2017-01-15T08:32:40.975Z,2128
2017-01-15T08:32:53.771Z,2088
2017-01-15T08:34:27.641Z,1944
2017-01-15T08:35:43.425Z,1852
2017-01-15T08:36:05.978Z,1796
2017-01-15T08:37:30.530Z,1748
2017-01-15T08:38:05.969Z,1748
2017-01-15T08:39:05.996Z,1748
2017-01-15T08:40:34.981Z,1856
2017-01-15T08:41:16.946Z,1904
2017-01-15T08:43:03.523Z,2092
2017-01-15T08:43:51.220Z,2196
2017-01-15T08:44:58.845Z,2464
2017-01-15T08:45:24.723Z,2588
2017-01-15T08:47:04.821Z,3216
2017-01-15T08:48:07.826Z,3880
2017-01-15T08:48:39.640Z,3996
2017-01-15T08:50:21.878Z,3748
2017-01-15T08:50:39.671Z,3680
2017-01-15T08:52:27.546Z,3044
2017-01-15T08:52:40.461Z,2796
2017-01-15T08:53:58.037Z,2144
2017-01-15T08:55:06.544Z,2008
2017-01-15T08:55:40.451Z,1980
2017-01-15T08:57:01.465Z,1832
2017-01-15T08:58:23.475Z,1684
2017-01-15T08:58:40.496Z,1652
2017-01-15T09:00:20.324Z,1528
2017-01-15T09:01:33.937Z,1480
2017-01-15T09:02:35.396Z,1500
2017-01-15T09:03:49.838Z,1520
2017-01-15T09:04:32.971Z,1724
2017-01-15T09:06:02.783Z,2188
2017-01-15T09:07:02.267Z,2304
2017-01-15T09:08:11.017Z,2284
2017-01-15T09:09:21.118Z,2236
2017-01-15T09:10:25.331Z,2240
2017-01-15T09:11:38.306Z,2156
2017-01-15T09:12:47.204Z,2136
2017-01-15T09:13:58.305Z,2160
2017-01-15T09:15:23.924Z,2220
2017-01-15T09:16:46.729Z,2348
2017-01-15T09:18:03.546Z,2520
2017-01-15T09:19:28.455Z,2760
2017-01-15T09:20:50.599Z,3096
2017-01-15T09:22:09.861Z,3248
2017-01-15T09:23:27.295Z,3264
2017-01-15T09:24:52.657Z,3456
2017-01-15T09:26:05.833Z,3672
2017-01-15T09:27:31.399Z,3704
2017-01-15T09:28:55.118Z,3532
2017-01-15T09:30:14.731Z,3124
2017-01-15T09:31:40.509Z,2884
2017-01-15T09:32:59.033Z,2764
2017-01-15T09:34:01.496Z,2668
2017-01-15T09:35:16.913Z,2508
2017-01-15T09:36:40.580Z,2508
2017-01-15T09:38:02.149Z,2596
2017-01-15T09:39:25.017Z,2584
2017-01-15T09:40:48.222Z,2668
2017-01-15T09:42:08.167Z,2820
2017-01-15T09:43:33.526Z,2964
2017-01-15T09:44:26.200Z,3016
2017-01-15T09:45:51.250Z,3092
2017-01-15T09:47:09.119Z,3168
2017-01-15T09:48:34.318Z,3180
2017-01-15T09:49:56.824Z,3204
2017-01-15T09:51:18.483Z,3324
2017-01-15T09:52:44.909Z,3616
2017-01-15T09:54:01.384Z,3904
2017-01-15T09:55:22.044Z,4148
2017-01-15T09:56:46.549Z,4208
2017-01-15T09:58:08.027Z,4180
2017-01-15T09:59:31.799Z,3944
2017-01-15T10:00:40.751Z,3560
2017-01-15T10:02:04.071Z,3184
2017-01-15T10:03:24.848Z,3048
2017-01-15T10:04:45.341Z,2948
2017-01-15T10:06:09.136Z,2944
2017-01-15T10:07:31.774Z,2928
2017-01-15T10:08:41.038Z,2944
2017-01-15T10:10:02.168Z,2936
2017-01-15T10:11:21.674Z,2916
2017-01-15T10:12:48.061Z,2936
2017-01-15T10:13:48.672Z,2944
2017-01-15T10:15:03.018Z,2936
2017-01-15T10:16:11.568Z,2940
2017-01-15T10:17:25.431Z,2960
2017-01-15T10:18:41.088Z,2964
2017-01-15T10:19:56.107Z,2980
2017-01-15T10:21:04.643Z,3000
2017-01-15T10:22:19.041Z,3012
2017-01-15T10:23:33.389Z,3024
2017-01-15T10:24:39.962Z,3028
2017-01-15T10:26:08.355Z,3076
2017-01-15T10:27:25.351Z,3116
2017-01-15T10:28:53.948Z,3120
2017-01-15T10:30:17.700Z,3116
2017-01-15T10:31:45.419Z,3136
2017-01-15T10:33:07.730Z,3152
2017-01-15T10:34:34.360Z,3156
2017-01-15T10:35:42.174Z,3132
2017-01-15T10:37:07.073Z,3132
2017-01-15T10:38:29.780Z,3140
2017-01-15T10:39:51.475Z,3144
2017-01-15T10:41:12.447Z,3212
2017-01-15T10:42:22.350Z,3260
2017-01-15T10:43:43.936Z,3312
2017-01-15T10:44:57.801Z,3392
2017-01-15T10:46:08.819Z,3472
2017-01-15T10:47:19.893Z,3504
2017-01-15T10:48:34.635Z,3504
2017-01-15T10:49:42.333Z,3532
2017-01-15T10:51:10.646Z,3576
2017-01-15T10:52:32.587Z,3624
2017-01-15T10:53:59.138Z,3712
2017-01-15T10:55:11.319Z,3780
2017-01-15T10:56:35.895Z,3944
2017-01-15T10:57:59.100Z,4152
2017-01-15T10:59:24.605Z,4356
2017-01-15T11:00:48.192Z,4480
2017-01-15T11:02:07.391Z,4624
2017-01-15T11:03:07.532Z,4780
2017-01-15T11:04:27.088Z,4972
2017-01-15T11:04:58.019Z,5092
2017-01-15T11:06:38.664Z,5212
2017-01-15T11:07:44.656Z,4928
2017-01-15T11:08:57.581Z,4604
2017-01-15T11:10:13.239Z,4252
2017-01-15T11:11:16.112Z,4020
2017-01-15T11:12:41.987Z,3840
2017-01-15T11:13:55.552Z,3744
2017-01-15T11:15:19.229Z,3788
2017-01-15T11:16:37.735Z,3812
2017-01-15T11:18:01.910Z,3880
2017-01-15T11:19:22.006Z,3992
2017-01-15T11:20:44.792Z,4140
2017-01-15T11:22:08.479Z,4284
2017-01-15T11:23:28.897Z,4292
2017-01-15T11:24:52.859Z,4176
2017-01-15T11:25:39.766Z,4100
2017-01-15T11:27:17.720Z,4092
2017-01-15T11:28:38.287Z,4108
2017-01-15T11:29:48.164Z,4084
2017-01-15T11:30:57.038Z,4188
2017-01-15T11:32:07.350Z,4240
2017-01-15T11:33:17.290Z,4260
2017-01-15T11:34:37.991Z,4300
2017-01-15T11:35:06.496Z,4392
2017-01-15T11:36:31.663Z,4464
2017-01-15T11:37:46.783Z,4736
2017-01-15T11:39:01.814Z,5108
2017-01-15T11:39:54.428Z,5308
2017-01-15T11:41:20.150Z,5436
2017-01-15T11:42:38.346Z,5452
2017-01-15T11:44:00.387Z,5392
2017-01-15T11:44:52.976Z,5312
2017-01-15T11:46:24.035Z,5036
2017-01-15T11:47:23.888Z,5024
2017-01-15T11:48:11.122Z,5032
2017-01-15T11:49:43.785Z,5248
2017-01-15T11:51:10.010Z,5516
2017-01-15T11:52:24.209Z,5768
2017-01-15T11:53:49.773Z,5996
2017-01-15T11:55:08.440Z,6100
2017-01-15T11:55:35.082Z,6224
2017-01-15T11:57:22.439Z,6328
2017-01-15T11:57:34.864Z,6328
2017-01-15T11:59:01.711Z,6376
2017-01-15T11:59:35.454Z,6336
2017-01-15T12:00:39.802Z,6324
2017-01-15T12:01:35.024Z,6308
2017-01-15T12:02:34.854Z,6172
2017-01-15T12:03:35.541Z,6020
2017-01-15T12:04:34.877Z,5956
2017-01-15T12:05:34.885Z,5932
2017-01-15T12:06:35.084Z,5880
2017-01-15T12:07:35.006Z,5748
2017-01-15T12:08:34.903Z,5688
2017-01-15T12:09:34.907Z,5628
2017-01-15T12:10:35.074Z,5544
2017-01-15T12:11:35.220Z,5480
2017-01-15T12:12:35.028Z,5392
2017-01-15T12:13:34.900Z,5300
2017-01-15T12:14:35.610Z,5248
2017-01-15T12:15:34.935Z,5140
2017-01-15T12:16:34.868Z,5136
2017-01-15T12:17:34.832Z,5076
2017-01-15T12:18:34.907Z,5040
2017-01-15T12:19:34.898Z,5012
2017-01-15T12:20:34.868Z,4980
2017-01-15T12:21:34.853Z,4900
2017-01-15T12:22:34.913Z,4804
2017-01-15T12:23:34.924Z,4772
2017-01-15T12:24:37.005Z,4808
2017-01-15T12:25:34.892Z,4880
2017-01-15T12:26:34.900Z,4936
2017-01-15T12:27:34.854Z,4948
2017-01-15T12:28:34.852Z,4928
2017-01-15T12:29:34.846Z,4868
2017-01-15T12:30:34.863Z,4816
2017-01-15T12:31:34.909Z,4688
2017-01-15T12:32:34.835Z,4560
2017-01-15T12:33:34.883Z,4452
2017-01-15T12:34:34.903Z,4348
2017-01-15T12:35:34.925Z,4028
2017-01-15T12:36:37.631Z,3644
2017-01-15T12:37:37.863Z,3332
2017-01-15T12:38:34.846Z,3124
2017-01-15T12:39:34.879Z,2908
2017-01-15T12:40:34.915Z,2884
2017-01-15T12:41:34.889Z,2908
2017-01-15T12:42:34.892Z,2900
2017-01-15T12:43:35.464Z,2936
2017-01-15T12:44:34.858Z,3000
2017-01-15T12:45:34.900Z,3016
2017-01-15T12:46:34.867Z,3036
2017-01-15T12:47:34.869Z,3160
2017-01-15T12:48:34.894Z,3360
2017-01-15T12:49:34.885Z,3544
2017-01-15T12:50:34.874Z,3728
2017-01-15T12:51:34.864Z,3852
2017-01-15T12:52:34.887Z,3960
2017-01-15T12:53:34.877Z,4040
2017-01-15T12:54:34.880Z,4252
2017-01-15T12:55:34.907Z,4356
2017-01-15T12:56:34.862Z,4308
2017-01-15T12:57:34.877Z,4232
2017-01-15T12:58:34.881Z,4240
2017-01-15T12:59:34.873Z,4100
2017-01-15T13:00:34.881Z,3784
2017-01-15T13:01:34.907Z,3544
2017-01-15T13:02:34.851Z,3376
2017-01-15T13:03:36.488Z,3284
2017-01-15T13:04:34.902Z,3260
2017-01-15T13:05:34.880Z,3280
2017-01-15T13:06:34.944Z,3380
2017-01-15T13:07:34.869Z,3428
2017-01-15T13:08:34.877Z,3588
2017-01-15T13:09:34.894Z,3356
2017-01-15T13:10:34.883Z,3260
2017-01-15T13:11:34.886Z,3072
2017-01-15T13:12:34.908Z,3012
2017-01-15T13:13:34.896Z,2808
2017-01-15T13:14:34.872Z,2748
2017-01-15T13:15:34.893Z,2596
2017-01-15T13:16:34.924Z,2376
2017-01-15T13:17:34.884Z,2280
2017-01-15T13:18:34.891Z,2216
2017-01-15T13:19:34.880Z,2204
2017-01-15T13:20:35.041Z,2196
2017-01-15T13:21:34.870Z,2204
2017-01-15T13:22:34.925Z,2220
2017-01-15T13:23:34.888Z,2232
2017-01-15T13:24:34.883Z,2308
2017-01-15T13:25:34.891Z,2356
2017-01-15T13:26:35.601Z,2400
2017-01-15T13:27:34.883Z,2336
2017-01-15T13:28:34.878Z,2352
2017-01-15T13:29:34.970Z,2376
2017-01-15T13:30:34.919Z,2428
2017-01-15T13:31:34.885Z,2440
2017-01-15T13:32:34.891Z,2408
2017-01-15T13:33:34.898Z,2396
2017-01-15T13:34:34.921Z,2448
2017-01-15T13:35:34.889Z,2580
2017-01-15T13:36:34.873Z,2520
2017-01-15T13:37:34.892Z,2536
2017-01-15T13:38:34.922Z,2496
2017-01-15T13:39:34.894Z,2480
2017-01-15T13:40:34.930Z,2532
2017-01-15T13:41:35.012Z,2540
2017-01-15T13:42:34.995Z,2540
2017-01-15T13:43:34.917Z,2532
2017-01-15T13:44:34.920Z,2528
2017-01-15T13:45:34.930Z,2488
2017-01-15T13:46:34.887Z,2524
2017-01-15T13:47:35.022Z,2524
2017-01-15T13:48:34.948Z,2516
2017-01-15T13:49:34.907Z,2500
2017-01-15T13:50:34.902Z,2492
2017-01-15T13:51:34.917Z,2524
2017-01-15T13:52:34.892Z,2520
2017-01-15T13:53:34.920Z,2512
2017-01-15T13:54:34.921Z,2500
2017-01-15T13:55:34.990Z,2480
2017-01-15T13:56:34.899Z,2440
2017-01-15T13:57:34.918Z,2420
2017-01-15T13:58:34.927Z,2424
2017-01-15T13:59:34.919Z,2424
2017-01-15T14:00:34.954Z,2428
2017-01-15T14:01:34.934Z,2436
2017-01-15T14:02:35.085Z,2440
2017-01-15T14:03:35.224Z,2432
2017-01-15T14:04:34.988Z,2424
2017-01-15T14:05:35.004Z,2408
2017-01-15T14:06:35.020Z,2408
2017-01-15T14:07:35.088Z,2400
2017-01-15T14:08:34.998Z,2392
2017-01-15T14:09:34.996Z,2384
2017-01-15T14:10:36.456Z,2384
2017-01-15T14:11:34.944Z,2380
2017-01-15T14:12:34.919Z,2376
2017-01-15T14:13:34.954Z,2380
2017-01-15T14:14:35.312Z,2392
2017-01-15T14:15:35.107Z,2408
2017-01-15T14:16:35.031Z,2432
2017-01-15T14:17:34.928Z,2488
2017-01-15T14:18:34.928Z,2564
2017-01-15T14:19:34.923Z,2632
2017-01-15T14:20:34.945Z,2680
2017-01-15T14:21:34.947Z,2704
2017-01-15T14:22:35.175Z,2700
2017-01-15T14:23:34.963Z,2672
2017-01-15T14:24:34.941Z,2708
2017-01-15T14:25:34.930Z,2748
2017-01-15T14:26:34.967Z,2604
2017-01-15T14:27:35.119Z,2428
2017-01-15T14:28:34.988Z,2356
2017-01-15T14:29:34.962Z,2296
2017-01-15T14:30:34.973Z,2304
2017-01-15T14:31:35.056Z,2312
2017-01-15T14:32:34.939Z,2240
2017-01-15T14:33:35.122Z,2192
2017-01-15T14:34:34.961Z,2164
2017-01-15T14:35:36.052Z,2072
2017-01-15T14:36:35.003Z,2072
2017-01-15T14:37:34.979Z,2040
2017-01-15T14:38:34.938Z,2004
2017-01-15T14:39:35.069Z,1976
2017-01-15T14:40:35.040Z,1956
2017-01-15T14:41:34.955Z,1936
2017-01-15T14:42:34.940Z,1916
2017-01-15T14:43:34.973Z,1896
2017-01-15T14:44:35.139Z,1876
2017-01-15T14:45:35.218Z,1860
2017-01-15T14:46:34.967Z,1848
2017-01-15T14:47:34.942Z,1840
2017-01-15T14:48:35.123Z,1828
2017-01-15T14:49:34.968Z,1780
2017-01-15T14:50:34.975Z,1744
2017-01-15T14:51:35.027Z,1732
2017-01-15T14:52:34.987Z,1712
2017-01-15T14:53:35.014Z,1700
2017-01-15T14:54:34.979Z,1680
2017-01-15T14:55:34.982Z,1640
2017-01-15T14:56:34.978Z,1604
2017-01-15T14:57:34.932Z,1560